Time;durP1;ratioP1;P1;durP2;ratioP2;P2;SDS_P1;SDS_P2;PMS_P1;PMS_P2;Temp;Humidity;BMP_temperature;BMP_pressure;BME280_temperature;BME280_humidity;BME280_pressure;Samples;Min_cycle;Max_cycle;Signal;HPM_P1;HPM_P2
2023/08/04 00:01:43;;;;;;;12.65;11.60;;;20.40;99.90;;;;;;5292391;28;20467;-72
2023/08/04 00:04:14;;;;;;;13.00;11.80;;;20.30;99.90;;;;;;5292400;28;20042;-71
2023/08/04 00:06:45;;;;;;;12.75;11.63;;;20.40;99.90;;;;;;5292230;28;20035;-71
2023/08/04 00:09:16;;;;;;;12.70;11.50;;;20.30;99.90;;;;;;5292232;28;20487;-71
2023/08/04 00:11:47;;;;;;;12.32;11.32;;;20.30;99.90;;;;;;5292418;28;20031;-72
2023/08/04 00:14:18;;;;;;;13.27;12.07;;;20.40;99.90;;;;;;5292137;28;20032;-71
2023/08/04 00:16:49;;;;;;;12.65;11.55;;;20.30;99.90;;;;;;5291970;28;20043;-72
2023/08/04 00:19:19;;;;;;;12.73;11.63;;;20.40;99.90;;;;;;5290216;28;20402;-71
2023/08/04 00:21:50;;;;;;;13.65;12.35;;;20.30;99.90;;;;;;5291592;28;20016;-72
2023/08/04 00:24:21;;;;;;;13.45;12.25;;;20.10;99.90;;;;;;5290824;27;20367;-71
2023/08/04 00:26:52;;;;;;;13.15;11.95;;;20.10;99.90;;;;;;5290428;28;20522;-71
2023/08/04 00:29:22;;;;;;;14.63;13.18;;;20.20;99.90;;;;;;5290801;28;20020;-72
2023/08/04 00:31:53;;;;;;;13.23;12.10;;;20.00;99.90;;;;;;5290792;28;20563;-71
2023/08/04 00:34:24;;;;;;;16.10;14.43;;;19.80;99.90;;;;;;5290549;28;20463;-72
2023/08/04 00:36:55;;;;;;;13.90;12.80;;;19.80;99.90;;;;;;5290576;28;20034;-71
2023/08/04 00:39:26;;;;;;;15.05;13.80;;;20.00;99.90;;;;;;5291703;28;20325;-71
2023/08/04 00:41:56;;;;;;;16.10;14.63;;;20.00;99.90;;;;;;5291546;28;20150;-71
2023/08/04 00:44:27;;;;;;;15.13;13.82;;;19.60;99.90;;;;;;5291382;28;20031;-72
2023/08/04 00:46:59;;;;;;;14.05;12.95;;;19.70;99.90;;;;;;5291451;28;20065;-71
2023/08/04 00:49:30;;;;;;;15.07;13.68;;;19.80;99.90;;;;;;5273624;28;20020;-72
2023/08/04 00:52:01;;;;;;;15.00;13.80;;;19.90;99.90;;;;;;5270371;28;20113;-72
2023/08/04 00:54:33;;;;;;;14.88;13.63;;;19.90;99.90;;;;;;5270377;28;20035;-72
2023/08/04 00:57:05;;;;;;;14.23;12.93;;;19.80;99.90;;;;;;5270327;28;20028;-71
2023/08/04 00:59:36;;;;;;;15.35;14.05;;;19.90;99.90;;;;;;5270355;28;20059;-71
2023/08/04 01:02:06;;;;;;;15.38;14.18;;;19.70;99.90;;;;;;5284998;28;20062;-71
2023/08/04 01:04:37;;;;;;;14.35;12.85;;;19.70;99.90;;;;;;5291095;28;20102;-71
2023/08/04 01:07:28;;;;;;;15.57;14.18;;;19.80;99.90;;;;;;5288689;28;20171;-72
2023/08/04 01:10:10;;;;;;;14.95;13.75;;;19.70;99.90;;;;;;5284635;28;20036;-70
2023/08/04 01:13:06;;;;;;;14.23;12.95;;;19.80;99.90;;;;;;5289696;28;20098;-70
2023/08/04 01:15:38;;;;;;;14.82;13.63;;;19.80;99.90;;;;;;5289783;28;20100;-71
2023/08/04 01:18:08;;;;;;;14.65;13.45;;;19.90;99.90;;;;;;5290205;28;20391;-71
2023/08/04 01:20:39;;;;;;;14.40;13.30;;;19.80;99.90;;;;;;5289579;28;20020;-72
2023/08/04 01:23:10;;;;;;;15.02;13.82;;;19.70;99.90;;;;;;5289375;28;20031;-71
2023/08/04 01:25:42;;;;;;;15.55;14.13;;;19.70;99.90;;;;;;5289394;28;20032;-71
2023/08/04 01:28:15;;;;;;;15.82;14.43;;;19.60;99.90;;;;;;5289486;28;20027;-72
2023/08/04 01:30:49;;;;;;;16.33;15.13;;;19.50;99.90;;;;;;5289358;28;20371;-72
2023/08/04 01:33:20;;;;;;;15.35;13.98;;;19.60;99.90;;;;;;5289981;28;20466;-71
2023/08/04 01:35:52;;;;;;;15.57;14.13;;;19.60;99.90;;;;;;5290605;28;20024;-71
2023/08/04 01:38:23;;;;;;;15.32;14.00;;;19.70;99.90;;;;;;5291047;28;20531;-71
2023/08/04 01:40:54;;;;;;;15.27;13.98;;;19.60;99.90;;;;;;5290801;28;20106;-71
2023/08/04 01:43:25;;;;;;;14.98;13.50;;;19.70;99.90;;;;;;5290654;28;20165;-71
2023/08/04 01:45:56;;;;;;;15.30;13.95;;;19.50;99.90;;;;;;5290142;28;20044;-71
2023/08/04 01:48:27;;;;;;;16.20;14.80;;;19.40;99.90;;;;;;5290153;27;20058;-71
2023/08/04 01:50:58;;;;;;;16.70;15.30;;;19.40;99.90;;;;;;5289795;28;20020;-72
2023/08/04 01:53:29;;;;;;;17.10;15.80;;;19.40;99.90;;;;;;5290369;28;20038;-71
2023/08/04 01:55:59;;;;;;;17.27;15.80;;;19.50;99.90;;;;;;5290150;28;20041;-72
2023/08/04 01:58:30;;;;;;;17.65;16.35;;;19.40;99.90;;;;;;5290252;27;20023;-77
2023/08/04 02:01:01;;;;;;;18.35;16.95;;;19.50;99.90;;;;;;5290088;28;20027;-71
2023/08/04 02:03:34;;;;;;;18.13;16.73;;;19.30;99.90;;;;;;5290129;28;20027;-71
2023/08/04 02:06:05;;;;;;;17.27;15.95;;;19.40;99.90;;;;;;5289799;28;20070;-71
2023/08/04 02:08:36;;;;;;;18.63;17.23;;;19.40;99.90;;;;;;5289912;28;20063;-71
2023/08/04 02:11:07;;;;;;;19.05;17.65;;;19.50;99.90;;;;;;5289048;28;20022;-71
2023/08/04 02:13:38;;;;;;;19.70;18.10;;;19.30;99.90;;;;;;5289064;28;20471;-71
2023/08/04 02:16:09;;;;;;;19.83;18.33;;;19.30;99.90;;;;;;5288277;28;20050;-71
2023/08/04 02:18:40;;;;;;;20.73;18.75;;;19.20;99.90;;;;;;5288299;28;20020;-71
2023/08/04 02:21:10;;;;;;;19.42;17.88;;;19.20;99.90;;;;;;5288493;28;20150;-72
2023/08/04 02:23:41;;;;;;;19.65;18.15;;;19.20;99.90;;;;;;5288404;28;20423;-72
2023/08/04 02:26:12;;;;;;;21.08;19.25;;;19.00;99.90;;;;;;5288220;28;20039;-71
2023/08/04 02:28:43;;;;;;;18.10;16.80;;;19.10;99.90;;;;;;5288609;28;20020;-71
2023/08/04 02:31:13;;;;;;;19.25;17.75;;;19.20;99.90;;;;;;5289482;28;20050;-71
2023/08/04 02:33:44;;;;;;;20.58;18.80;;;19.20;99.90;;;;;;5289548;28;20102;-71
2023/08/04 02:36:16;;;;;;;20.52;18.92;;;19.20;99.90;;;;;;5289331;28;20024;-71
2023/08/04 02:38:47;;;;;;;19.05;17.52;;;19.10;99.90;;;;;;5289715;28;20518;-71
2023/08/04 02:41:18;;;;;;;17.38;15.98;;;19.10;99.90;;;;;;5289620;28;20088;-72
2023/08/04 02:43:48;;;;;;;18.92;17.35;;;19.10;99.90;;;;;;5289306;28;20038;-72
2023/08/04 02:46:22;;;;;;;18.17;16.73;;;19.20;99.90;;;;;;5288916;28;20043;-72
2023/08/04 02:48:53;;;;;;;18.55;17.05;;;19.10;99.90;;;;;;5289222;28;20088;-71
2023/08/04 02:51:24;;;;;;;17.65;16.35;;;19.10;99.90;;;;;;5289330;28;20035;-71
2023/08/04 02:53:55;;;;;;;15.68;14.32;;;19.00;99.90;;;;;;5289330;28;20027;-71
2023/08/04 02:56:25;;;;;;;16.20;15.00;;;18.90;99.90;;;;;;5288391;28;20107;-72
2023/08/04 02:58:56;;;;;;;16.15;14.95;;;19.00;99.90;;;;;;5289423;28;20056;-71
2023/08/04 03:01:27;;;;;;;16.00;14.77;;;19.00;99.90;;;;;;5289080;28;20016;-77
2023/08/04 03:03:58;;;;;;;14.82;13.68;;;19.10;99.90;;;;;;5289078;28;20443;-71
2023/08/04 03:06:29;;;;;;;15.50;14.10;;;18.90;99.90;;;;;;5288074;28;20032;-71
2023/08/04 03:08:59;;;;;;;14.82;13.63;;;19.00;99.90;;;;;;5288802;28;20034;-72
2023/08/04 03:11:30;;;;;;;14.68;13.43;;;18.90;99.90;;;;;;5287795;28;20066;-72
2023/08/04 03:14:01;;;;;;;14.48;13.27;;;18.80;99.90;;;;;;5287533;28;20028;-72
2023/08/04 03:16:33;;;;;;;14.70;13.40;;;18.80;99.90;;;;;;5287454;28;20134;-72
2023/08/04 03:19:03;;;;;;;14.52;13.32;;;18.90;99.90;;;;;;5287734;28;20107;-71
2023/08/04 03:21:34;;;;;;;14.32;13.15;;;18.90;99.90;;;;;;5287660;28;20059;-72
2023/08/04 03:24:05;;;;;;;13.50;12.25;;;19.00;99.90;;;;;;5287656;28;20398;-71
2023/08/04 03:26:36;;;;;;;14.30;12.93;;;18.90;99.90;;;;;;5288085;28;20039;-75
2023/08/04 03:29:06;;;;;;;14.13;12.73;;;18.90;99.90;;;;;;5288683;28;20492;-71
2023/08/04 03:31:37;;;;;;;15.00;13.60;;;19.00;99.90;;;;;;5273741;28;20103;-71
2023/08/04 03:34:08;;;;;;;15.02;13.73;;;19.00;99.90;;;;;;5267574;28;20093;-71
2023/08/04 03:36:39;;;;;;;14.23;13.00;;;19.00;99.90;;;;;;5267596;28;20056;-71
2023/08/04 03:39:10;;;;;;;15.30;13.93;;;19.00;99.90;;;;;;5267648;28;20024;-71
2023/08/04 03:41:40;;;;;;;14.90;13.60;;;19.00;99.90;;;;;;5267651;28;20095;-71
2023/08/04 03:44:11;;;;;;;13.95;12.75;;;19.00;99.90;;;;;;5267597;28;20021;-71
2023/08/04 03:46:42;;;;;;;14.05;12.93;;;19.10;99.90;;;;;;5267438;28;20131;-71
2023/08/04 03:49:13;;;;;;;14.82;13.52;;;19.20;99.90;;;;;;5267555;28;20357;-71
2023/08/04 03:51:43;;;;;;;14.32;13.18;;;19.20;99.90;;;;;;5267596;28;20074;-71
2023/08/04 03:54:14;;;;;;;14.40;12.95;;;19.30;99.90;;;;;;5267432;28;20024;-71
2023/08/04 03:56:45;;;;;;;15.30;13.90;;;19.20;99.90;;;;;;5267536;28;20120;-71
2023/08/04 03:59:16;;;;;;;14.50;13.10;;;19.40;99.90;;;;;;5266157;28;20070;-73
2023/08/04 04:01:46;;;;;;;14.68;13.48;;;19.40;99.90;;;;;;5267010;28;20073;-71
2023/08/04 04:04:17;;;;;;;14.80;13.40;;;19.30;99.90;;;;;;5266784;28;20032;-71
2023/08/04 04:06:48;;;;;;;14.05;12.63;;;19.50;99.90;;;;;;5265757;28;20036;-72
2023/08/04 04:09:19;;;;;;;15.68;13.80;;;19.70;99.90;;;;;;5266067;28;20046;-71
2023/08/04 04:11:49;;;;;;;13.93;12.82;;;19.70;99.90;;;;;;5266145;28;20032;-71
2023/08/04 04:14:20;;;;;;;14.60;13.40;;;19.70;99.90;;;;;;5269856;28;20036;-72
2023/08/04 04:16:51;;;;;;;14.73;13.63;;;19.90;99.90;;;;;;5269854;28;20363;-71
2023/08/04 04:19:21;;;;;;;15.90;14.50;;;19.90;99.90;;;;;;5269774;28;20101;-71
2023/08/04 04:21:52;;;;;;;17.38;16.08;;;19.90;99.90;;;;;;5270895;28;20013;-71
2023/08/04 04:24:23;;;;;;;16.95;15.55;;;20.00;99.90;;;;;;5271087;28;20023;-70
2023/08/04 04:26:54;;;;;;;17.75;16.20;;;20.10;99.90;;;;;;5270818;28;20361;-70
2023/08/04 04:29:25;;;;;;;16.88;15.45;;;20.10;99.90;;;;;;5271034;28;20102;-70
2023/08/04 04:31:55;;;;;;;19.13;17.67;;;20.30;99.90;;;;;;5270845;28;20028;-71
2023/08/04 04:34:26;;;;;;;18.88;17.38;;;20.30;99.90;;;;;;5270727;28;20103;-70
2023/08/04 04:36:58;;;;;;;17.25;15.90;;;20.30;99.90;;;;;;5270678;28;20016;-70
2023/08/04 04:39:29;;;;;;;16.65;15.35;;;20.60;99.90;;;;;;5270773;28;20499;-70
2023/08/04 04:41:59;;;;;;;18.67;16.88;;;20.40;99.90;;;;;;5270694;28;20055;-71
2023/08/04 04:44:30;;;;;;;16.83;15.52;;;20.70;99.90;;;;;;5270376;28;20383;-70
2023/08/04 04:47:01;;;;;;;16.98;15.68;;;20.60;99.90;;;;;;5270254;28;20040;-71
2023/08/04 04:49:32;;;;;;;16.95;15.65;;;20.90;99.90;;;;;;5270597;28;20422;-70
2023/08/04 04:52:05;;;;;;;16.23;14.80;;;21.00;99.90;;;;;;5279422;28;20035;-70
2023/08/04 04:54:38;;;;;;;15.57;14.27;;;21.20;99.90;;;;;;5291357;28;20044;-71
2023/08/04 04:57:10;;;;;;;15.20;14.05;;;;;;;;;;5291381;28;20055;-71
2023/08/04 04:59:41;;;;;;;13.75;12.45;;;;;;;;;;5285221;28;20023;-72
2023/08/04 05:02:12;;;;;;;14.73;13.32;;;21.60;99.90;;;;;;5269538;28;20060;-70
2023/08/04 05:04:44;;;;;;;15.43;14.20;;;21.70;99.90;;;;;;5285144;28;20099;-70
2023/08/04 05:07:14;;;;;;;13.75;12.52;;;21.80;99.90;;;;;;5287024;28;20442;-70
2023/08/04 05:09:45;;;;;;;14.50;13.38;;;21.90;99.90;;;;;;5289933;28;20054;-74
2023/08/04 05:12:21;;;;;;;15.07;13.77;;;22.20;99.90;;;;;;5290026;28;20596;-74
2023/08/04 05:14:55;;;;;;;14.95;13.75;;;22.30;99.90;;;;;;5289663;28;20051;-71
2023/08/04 05:17:26;;;;;;;15.98;14.73;;;22.40;99.90;;;;;;5290087;28;20119;-75
2023/08/04 05:19:57;;;;;;;15.70;14.30;;;22.60;99.90;;;;;;5290871;28;20100;-75
2023/08/04 05:22:28;;;;;;;16.48;14.98;;;22.80;99.90;;;;;;5289163;28;20063;-70
2023/08/04 05:24:58;;;;;;;16.70;15.35;;;22.80;99.90;;;;;;5289644;28;20038;-71
2023/08/04 05:27:29;;;;;;;15.75;14.27;;;22.90;99.90;;;;;;5290572;28;20059;-71
2023/08/04 05:30:01;;;;;;;16.33;14.88;;;23.20;99.90;;;;;;5290502;28;20031;-71
2023/08/04 05:32:31;;;;;;;14.45;13.15;;;23.40;99.90;;;;;;5277438;28;20040;-73
2023/08/04 05:35:02;;;;;;;13.13;11.88;;;23.50;99.90;;;;;;5289895;28;20031;-70
2023/08/04 05:37:33;;;;;;;13.93;12.18;;;23.70;99.90;;;;;;5290416;28;20023;-74
2023/08/04 05:40:06;;;;;;;12.85;11.57;;;24.00;99.90;;;;;;5290220;28;20106;-71
2023/08/04 05:42:36;;;;;;;12.63;11.32;;;24.10;99.90;;;;;;5286818;28;20016;-71
2023/08/04 05:45:09;;;;;;;13.13;11.93;;;24.30;99.90;;;;;;5272540;28;20024;-71
2023/08/04 05:47:39;;;;;;;13.48;12.05;;;24.40;99.90;;;;;;5290284;28;20039;-71
2023/08/04 05:50:10;;;;;;;13.82;12.50;;;24.60;99.90;;;;;;5290031;28;20023;-74
2023/08/04 05:52:41;;;;;;;13.77;11.82;;;24.80;99.90;;;;;;5289644;28;20036;-73
2023/08/04 05:55:12;;;;;;;14.57;11.27;;;25.00;99.90;;;;;;5289113;28;20090;-75
2023/08/04 05:57:43;;;;;;;14.45;12.93;;;25.10;99.90;;;;;;5289382;28;20065;-72
2023/08/04 06:00:14;;;;;;;12.77;11.85;;;25.40;99.90;;;;;;5286784;28;20063;-71
2023/08/04 06:02:45;;;;;;;12.02;11.05;;;25.50;99.90;;;;;;5287910;28;20042;-72
2023/08/04 06:05:16;;;;;;;11.15;10.15;;;25.80;99.90;;;;;;5288006;28;20036;-73
2023/08/04 06:07:47;;;;;;;11.90;10.90;;;26.00;99.90;;;;;;5288394;28;20035;-71
2023/08/04 06:10:19;;;;;;;10.57;9.57;;;26.10;99.90;;;;;;5288215;27;20019;-71
2023/08/04 06:12:50;;;;;;;13.15;12.15;;;26.20;99.90;;;;;;5288725;28;20035;-75
2023/08/04 06:15:22;;;;;;;13.38;12.30;;;;;;;;;;5289430;28;20040;-70
2023/08/04 06:17:53;;;;;;;14.60;13.50;;;;;;;;;;5289564;28;20038;-72
2023/08/04 06:20:24;;;;;;;13.45;12.40;;;;;;;;;;5289467;28;20646;-72
2023/08/04 06:22:55;;;;;;;16.42;15.13;;;;;;;;;;5289406;28;20038;-75
2023/08/04 06:25:26;;;;;;;16.48;15.13;;;;;;;;;;5289231;28;20055;-75
2023/08/04 06:27:58;;;;;;;18.48;16.02;;;;;;;;;;5289259;28;20041;-75
2023/08/04 06:30:29;;;;;;;22.83;17.00;;;;;;;;;;5288869;28;20016;-71
2023/08/04 06:33:00;;;;;;;17.67;16.05;;;;;;;;;;5288639;28;20107;-75
2023/08/04 06:35:31;;;;;;;19.98;13.73;;;;;;;;;;5287358;28;20328;-74
2023/08/04 06:38:10;;;;;;;15.07;13.63;;;;;;;;;;5288760;28;20020;-72
2023/08/04 06:40:42;;;;;;;12.57;11.67;;;;;;;;;;5288497;28;20016;-75
2023/08/04 06:43:15;;;;;;;13.90;12.77;;;;;;;;;;5288573;28;20048;-76
2023/08/04 06:45:48;;;;;;;15.25;14.15;;;;;;;;;;5285416;28;20035;-76
2023/08/04 06:48:18;;;;;;;17.10;15.80;;;28.10;99.90;;;;;;5282357;28;20061;-72
2023/08/04 06:50:49;;;;;;;17.35;15.85;;;28.10;99.90;;;;;;5273212;28;20016;-74
2023/08/04 06:53:20;;;;;;;18.48;16.83;;;28.10;99.90;;;;;;5276795;28;20058;-76
2023/08/04 06:55:51;;;;;;;17.27;15.95;;;28.10;99.90;;;;;;5277429;28;20146;-72
2023/08/04 06:58:22;;;;;;;14.48;13.32;;;28.10;99.90;;;;;;5275921;28;20102;-71
2023/08/04 07:00:53;;;;;;;13.05;12.05;;;28.30;99.90;;;;;;5276641;28;20168;-76
2023/08/04 07:03:24;;;;;;;14.23;12.90;;;28.20;99.90;;;;;;5287654;28;20370;-72
2023/08/04 07:05:54;;;;;;;14.48;13.27;;;28.30;99.90;;;;;;5287432;28;20103;-76
2023/08/04 07:08:25;;;;;;;13.63;12.38;;;28.30;99.90;;;;;;5288135;28;20023;-72
2023/08/04 07:10:56;;;;;;;12.57;11.55;;;28.40;99.90;;;;;;5288272;28;20042;-72
2023/08/04 07:13:29;;;;;;;12.20;11.20;;;28.40;99.90;;;;;;5288656;28;20055;-74
2023/08/04 07:16:00;;;;;;;11.43;10.63;;;28.60;99.90;;;;;;5288532;28;20043;-72
2023/08/04 07:18:31;;;;;;;10.32;9.48;;;28.60;99.90;;;;;;5288471;28;20436;-72
2023/08/04 07:21:12;;;;;;;11.20;9.75;;;28.70;99.90;;;;;;5287006;28;20027;-72
2023/08/04 07:23:43;;;;;;;9.43;8.65;;;28.90;99.90;;;;;;5287868;28;20051;-72
2023/08/04 07:26:13;;;;;;;10.23;9.32;;;28.90;99.90;;;;;;5288131;28;20527;-73
2023/08/04 07:28:44;;;;;;;9.80;8.98;;;28.60;99.90;;;;;;5288218;28;20027;-76
2023/08/04 07:31:15;;;;;;;10.90;9.90;;;29.00;99.90;;;;;;5287403;28;20111;-76
2023/08/04 07:33:46;;;;;;;14.27;8.70;;;29.20;99.90;;;;;;5279134;28;20022;-77
2023/08/04 07:36:17;;;;;;;8.38;7.57;;;28.90;99.90;;;;;;5287069;28;20678;-73
2023/08/04 07:38:48;;;;;;;9.02;8.32;;;29.20;99.90;;;;;;5287217;28;20012;-73
2023/08/04 07:41:21;;;;;;;9.07;8.10;;;29.20;99.90;;;;;;5287135;28;20027;-74
2023/08/04 07:43:53;;;;;;;11.32;7.65;;;29.30;99.90;;;;;;5287060;28;20398;-72
2023/08/04 07:46:27;;;;;;;8.63;7.72;;;29.40;99.90;;;;;;5280020;28;20455;-73
2023/08/04 07:48:58;;;;;;;8.45;7.60;;;;;;;;;;5278406;28;20102;-72
2023/08/04 07:51:29;;;;;;;8.70;7.70;;;29.40;99.90;;;;;;5281097;28;20032;-72
2023/08/04 07:53:59;;;;;;;8.85;8.07;;;29.50;99.90;;;;;;5273739;28;20024;-73
2023/08/04 07:56:34;;;;;;;8.23;7.63;;;29.40;99.90;;;;;;5290329;28;20466;-76
2023/08/04 07:59:05;;;;;;;8.43;7.60;;;29.60;99.90;;;;;;5292312;28;20030;-75
2023/08/04 08:01:35;;;;;;;9.02;8.27;;;29.60;99.90;;;;;;5283654;28;20089;-75
2023/08/04 08:04:07;;;;;;;8.50;7.80;;;29.80;99.90;;;;;;5289678;28;20386;-77
2023/08/04 08:06:38;;;;;;;9.40;8.63;;;29.90;99.90;;;;;;5292106;28;20035;-76
2023/08/04 08:09:11;;;;;;;10.20;9.32;;;29.90;99.90;;;;;;5292109;28;20457;-73
2023/08/04 08:11:42;;;;;;;10.60;9.77;;;29.90;99.90;;;;;;5291803;28;20065;-75
2023/08/04 08:14:12;;;;;;;12.68;11.02;;;30.00;99.90;;;;;;5283090;28;20024;-72
2023/08/04 08:16:43;;;;;;;10.63;9.68;;;30.10;99.90;;;;;;5278594;28;20185;-81
2023/08/04 08:19:14;;;;;;;10.23;9.35;;;30.20;99.90;;;;;;5285846;28;20073;-72
2023/08/04 08:21:45;;;;;;;9.52;8.63;;;30.30;99.90;;;;;;5280020;28;20044;-72
2023/08/04 08:24:16;;;;;;;11.50;9.40;;;30.40;99.90;;;;;;5277596;28;20024;-72
2023/08/04 08:26:47;;;;;;;8.88;7.75;;;30.50;99.90;;;;;;5278517;28;20089;-74
2023/08/04 08:29:19;;;;;;;8.45;7.63;;;;;;;;;;5277880;28;20498;-80
2023/08/04 08:31:50;;;;;;;8.25;7.47;;;;;;;;;;5276224;28;20043;-73
2023/08/04 08:34:21;;;;;;;10.32;7.15;;;;;;;;;;5282239;28;20060;-73
2023/08/04 08:36:53;;;;;;;8.10;7.07;;;31.00;99.90;;;;;;5279974;28;20023;-74
2023/08/04 08:39:24;;;;;;;7.38;6.63;;;;;;;;;;5280514;28;20032;-73
2023/08/04 08:41:56;;;;;;;7.70;6.97;;;30.70;99.90;;;;;;5281561;28;20015;-73
2023/08/04 08:44:28;;;;;;;8.55;7.85;;;30.90;99.90;;;;;;5280356;28;20043;-72
2023/08/04 08:46:59;;;;;;;9.15;8.38;;;31.00;99.90;;;;;;5276936;28;20542;-77
2023/08/04 08:49:35;;;;;;;10.30;9.50;;;31.20;99.90;;;;;;5277929;28;20101;-82
2023/08/04 08:52:09;;;;;;;12.07;11.07;;;31.40;99.90;;;;;;5280656;28;20110;-72
2023/08/04 08:54:40;;;;;;;11.77;10.70;;;;;;;;;;5280407;28;20024;-72
2023/08/04 08:57:11;;;;;;;10.75;9.95;;;30.90;99.90;;;;;;5288053;28;20027;-84
2023/08/04 08:59:42;;;;;;;10.00;9.18;;;31.40;99.90;;;;;;5289210;28;20026;-82
2023/08/04 09:02:14;;;;;;;8.95;8.18;;;31.60;99.90;;;;;;5291073;28;20106;-79
2023/08/04 09:04:44;;;;;;;8.63;6.90;;;31.50;99.90;;;;;;5287778;28;20026;-73
2023/08/04 09:07:15;;;;;;;7.60;7.00;;;31.60;99.90;;;;;;5289645;28;20706;-81
2023/08/04 09:09:46;;;;;;;7.45;6.85;;;31.70;99.90;;;;;;5290032;28;20016;-73
2023/08/04 09:12:17;;;;;;;9.60;7.35;;;31.80;99.90;;;;;;5290893;28;20043;-73
2023/08/04 09:14:48;;;;;;;8.00;7.25;;;31.80;99.90;;;;;;5290415;28;20483;-76
2023/08/04 09:17:37;;;;;;;7.60;6.72;;;31.80;99.90;;;;;;5291047;28;20536;-73
2023/08/04 09:20:10;;;;;;;8.57;6.20;;;31.90;99.90;;;;;;5290009;28;20116;-73
2023/08/04 09:22:44;;;;;;;7.55;6.50;;;32.00;99.90;;;;;;5289812;28;20027;-74
2023/08/04 09:25:15;;;;;;;6.18;5.68;;;32.00;99.90;;;;;;5289246;28;20031;-73
2023/08/04 09:27:49;;;;;;;7.10;6.50;;;32.00;99.90;;;;;;5289268;28;20088;-73
2023/08/04 09:30:20;;;;;;;6.95;6.28;;;32.10;99.90;;;;;;5289276;28;20423;-74
2023/08/04 09:32:51;;;;;;;7.13;6.53;;;32.10;99.90;;;;;;5277665;28;20035;-73
2023/08/04 09:35:22;;;;;;;6.85;6.20;;;32.10;99.90;;;;;;5274772;28;20481;-74
2023/08/04 09:37:56;;;;;;;6.38;5.78;;;32.20;99.90;;;;;;5279899;27;20024;-72
2023/08/04 09:40:26;;;;;;;6.40;5.80;;;32.10;99.90;;;;;;5277108;28;20024;-82
2023/08/04 09:42:58;;;;;;;8.93;6.28;;;;;;;;;;5274699;28;20080;-80
2023/08/04 09:45:33;;;;;;;7.72;5.93;;;32.20;99.90;;;;;;5288874;28;20501;-74
2023/08/04 09:48:10;;;;;;;7.10;6.43;;;31.90;99.90;;;;;;5289686;28;20023;-74
2023/08/04 09:50:41;;;;;;;6.53;5.80;;;;;;;;;;5268953;28;20016;-74
2023/08/04 09:53:12;;;;;;;6.70;6.10;;;32.30;99.90;;;;;;5281154;28;20510;-79
2023/08/04 09:55:43;;;;;;;7.53;5.57;;;32.40;99.90;;;;;;5289972;28;20020;-73
2023/08/04 09:58:14;;;;;;;8.05;5.97;;;32.10;99.90;;;;;;5289786;28;20394;-74
2023/08/04 10:00:45;;;;;;;6.63;5.78;;;32.20;99.90;;;;;;5288852;28;20034;-73
2023/08/04 10:03:17;;;;;;;7.97;6.60;;;32.30;99.90;;;;;;5289164;27;20031;-78
2023/08/04 10:05:48;;;;;;;7.03;6.32;;;32.20;99.90;;;;;;5285794;28;20024;-75
2023/08/04 10:08:20;;;;;;;7.25;5.82;;;32.40;99.90;;;;;;5281641;28;20538;-73
2023/08/04 10:10:52;;;;;;;6.72;6.13;;;32.40;99.90;;;;;;5281553;28;20027;-74
2023/08/04 10:13:27;;;;;;;7.68;5.70;;;32.50;99.90;;;;;;5289426;28;20019;-79
2023/08/04 10:16:01;;;;;;;5.93;5.40;;;32.60;99.90;;;;;;5288387;28;20126;-74
2023/08/04 10:18:53;;;;;;;7.15;6.05;;;32.60;99.90;;;;;;5288894;28;20036;-72
2023/08/04 10:21:29;;;;;;;6.35;5.72;;;32.50;99.90;;;;;;5274964;28;20035;-75
2023/08/04 10:24:02;;;;;;;6.10;5.50;;;32.40;99.90;;;;;;5288086;28;20057;-76
2023/08/04 10:26:34;;;;;;;7.82;5.68;;;32.40;99.90;;;;;;5287775;28;20103;-73
2023/08/04 10:29:05;;;;;;;7.97;5.97;;;32.50;99.90;;;;;;5288171;28;20344;-73
2023/08/04 10:31:45;;;;;;;6.07;5.57;;;32.40;99.90;;;;;;5288003;28;20084;-73
2023/08/04 10:34:18;;;;;;;6.13;5.57;;;32.50;99.90;;;;;;5288841;28;20107;-80
2023/08/04 10:37:04;;;;;;;5.55;5.05;;;32.60;99.90;;;;;;5289199;28;20024;-74
2023/08/04 10:39:41;;;;;;;6.22;5.63;;;32.50;99.90;;;;;;5271405;28;20032;-79
2023/08/04 10:42:12;;;;;;;5.72;5.28;;;32.70;99.90;;;;;;5287584;28;20487;-78
2023/08/04 10:44:52;;;;;;;6.32;5.43;;;32.80;99.90;;;;;;5288778;28;20028;-72
2023/08/04 10:47:45;;;;;;;8.18;5.30;;;32.80;99.90;;;;;;5280537;28;20036;-75
2023/08/04 10:50:22;;;;;;;7.40;5.95;;;32.50;99.90;;;;;;5276426;28;20030;-73
2023/08/04 10:52:53;;;;;;;9.55;5.50;;;32.20;99.90;;;;;;5276397;28;20057;-73
2023/08/04 10:55:25;;;;;;;5.63;5.22;;;32.30;99.90;;;;;;5278087;28;20040;-80
2023/08/04 10:57:56;;;;;;;6.95;5.60;;;32.80;99.90;;;;;;5268191;28;20016;-72
2023/08/04 11:00:27;;;;;;;5.72;5.22;;;32.80;99.90;;;;;;5282628;28;20024;-83
2023/08/04 11:02:58;;;;;;;6.50;5.57;;;32.90;99.90;;;;;;5283790;28;20131;-81
2023/08/04 11:05:29;;;;;;;6.85;5.65;;;33.00;99.90;;;;;;5281083;28;20030;-82
2023/08/04 11:08:00;;;;;;;6.30;5.63;;;32.90;99.90;;;;;;5288936;28;20599;-84
2023/08/04 11:10:32;;;;;;;7.75;6.40;;;32.90;99.90;;;;;;5288192;28;20395;-80
2023/08/04 11:13:05;;;;;;;7.78;5.80;;;32.90;99.90;;;;;;5287065;28;20023;-84
2023/08/04 11:15:43;;;;;;;10.07;5.78;;;32.70;99.90;;;;;;5287099;28;20055;-84
2023/08/04 11:18:15;;;;;;;7.45;5.82;;;32.70;99.90;;;;;;5287021;28;20442;-73
2023/08/04 11:20:46;;;;;;;8.15;5.45;;;32.60;99.90;;;;;;5287319;28;20082;-81
2023/08/04 11:23:29;;;;;;;6.32;5.80;;;32.80;99.90;;;;;;5291498;28;20419;-80
2023/08/04 11:26:00;;;;;;;7.28;5.70;;;32.90;99.90;;;;;;5291709;28;20053;-82
2023/08/04 11:28:32;;;;;;;5.28;4.85;;;32.90;99.90;;;;;;5291779;28;20459;-82
2023/08/04 11:31:08;;;;;;;6.95;5.28;;;33.00;99.90;;;;;;5292770;28;20058;-80
2023/08/04 11:33:44;;;;;;;6.35;5.75;;;33.00;99.90;;;;;;5291207;28;20080;-80
2023/08/04 11:36:15;;;;;;;6.60;5.18;;;33.00;99.90;;;;;;5292768;28;20030;-73
2023/08/04 11:38:46;;;;;;;5.43;5.03;;;33.00;99.90;;;;;;5292675;28;20020;-75
2023/08/04 11:41:17;;;;;;;6.00;5.40;;;32.60;99.90;;;;;;5292869;28;20039;-74
2023/08/04 11:43:47;;;;;;;5.55;4.95;;;33.00;99.90;;;;;;5292772;28;20031;-71
2023/08/04 11:46:18;;;;;;;6.50;4.85;;;33.00;99.90;;;;;;5292355;28;20660;-71
2023/08/04 11:48:49;;;;;;;6.30;5.70;;;32.40;99.90;;;;;;5292433;28;20061;-72
2023/08/04 11:51:21;;;;;;;7.70;5.60;;;32.70;99.90;;;;;;5292666;28;20478;-71
2023/08/04 11:53:52;;;;;;;5.53;4.88;;;33.00;99.90;;;;;;5291886;28;20363;-80
2023/08/04 11:56:23;;;;;;;6.72;5.50;;;33.10;99.90;;;;;;5292610;28;20032;-81
2023/08/04 11:58:55;;;;;;;5.65;5.13;;;33.10;99.90;;;;;;5283500;28;20024;-80
2023/08/04 12:01:33;;;;;;;7.55;4.93;;;33.20;99.90;;;;;;5287723;28;20031;-80
2023/08/04 12:04:25;;;;;;;8.67;5.33;;;33.30;99.90;;;;;;5290616;28;20027;-72
2023/08/04 12:07:05;;;;;;;11.60;5.40;;;33.40;99.90;;;;;;5290180;28;20526;-79
2023/08/04 12:09:36;;;;;;;9.52;5.82;;;33.40;99.90;;;;;;5291744;28;20035;-80
2023/08/04 12:12:08;;;;;;;6.07;5.53;;;33.20;99.90;;;;;;5286059;28;20024;-72
2023/08/04 12:14:39;;;;;;;6.20;5.63;;;33.30;99.90;;;;;;5280366;28;20360;-81
2023/08/04 12:17:11;;;;;;;7.53;5.20;;;33.20;99.90;;;;;;5281800;28;20531;-79
2023/08/04 12:19:42;;;;;;;6.78;4.88;;;33.30;99.90;;;;;;5278968;28;20033;-72
2023/08/04 12:22:13;;;;;;;7.15;5.57;;;33.40;99.90;;;;;;5283380;28;20467;-73
2023/08/04 12:24:43;;;;;;;6.10;5.35;;;33.50;99.90;;;;;;5279067;28;20387;-81
2023/08/04 12:27:14;;;;;;;6.05;5.05;;;33.50;99.90;;;;;;5277541;28;20430;-73
2023/08/04 12:29:45;;;;;;;9.25;5.45;;;33.40;99.90;;;;;;5281682;28;20111;-80
2023/08/04 12:32:16;;;;;;;6.43;5.80;;;33.40;99.90;;;;;;5280874;28;20527;-72
2023/08/04 12:34:49;;;;;;;6.18;5.32;;;33.30;99.90;;;;;;5282025;28;20502;-77
2023/08/04 12:37:20;;;;;;;5.78;4.70;;;33.40;99.90;;;;;;5281345;28;20027;-73
2023/08/04 12:39:51;;;;;;;6.43;5.55;;;33.50;99.90;;;;;;5275523;28;20028;-80
2023/08/04 12:42:22;;;;;;;6.03;5.53;;;33.50;99.90;;;;;;5285596;28;20020;-72
2023/08/04 12:44:53;;;;;;;6.53;5.88;;;33.50;99.90;;;;;;5291342;28;20407;-76
2023/08/04 12:47:23;;;;;;;6.03;5.43;;;33.40;99.90;;;;;;5291791;28;20040;-71
2023/08/04 12:49:54;;;;;;;6.63;5.90;;;33.40;99.90;;;;;;5290856;28;20024;-73
2023/08/04 12:52:25;;;;;;;7.63;5.97;;;33.40;99.90;;;;;;5289885;28;20023;-72
2023/08/04 12:54:56;;;;;;;7.15;6.55;;;33.50;99.90;;;;;;5290694;28;20028;-73
2023/08/04 12:57:26;;;;;;;8.50;5.97;;;33.70;99.90;;;;;;5291176;28;20028;-72
2023/08/04 12:59:57;;;;;;;6.55;5.53;;;33.20;99.90;;;;;;5290830;28;20062;-72
2023/08/04 13:02:28;;;;;;;9.40;5.55;;;33.40;99.90;;;;;;5274860;27;20035;-72
2023/08/04 13:04:59;;;;;;;6.65;5.55;;;33.20;99.90;;;;;;5289657;28;20032;-78
2023/08/04 13:07:30;;;;;;;5.72;5.22;;;33.30;99.90;;;;;;5278775;28;20123;-76